createdAt,value
2023-02-12T00:01:32.116Z,9.45
2023-02-12T00:04:24.862Z,9.70
2023-02-12T00:07:17.810Z,10.12
2023-02-12T00:10:11.796Z,10.39
2023-02-12T00:13:04.550Z,10.49
2023-02-12T00:15:57.673Z,10.51
2023-02-12T00:18:49.798Z,10.32
2023-02-12T00:21:42.597Z,9.02
2023-02-12T00:24:37.051Z,7.67
2023-02-12T00:27:29.268Z,7.06
2023-02-12T00:30:22.524Z,7.76
2023-02-12T00:33:15.355Z,8.42
2023-02-12T00:36:10.440Z,8.55
2023-02-12T00:39:03.720Z,8.55
2023-02-12T00:41:56.590Z,8.58
2023-02-12T00:44:49.552Z,8.68
2023-02-12T00:47:42.318Z,9.02
2023-02-12T00:50:35.483Z,9.21
2023-02-12T00:53:28.276Z,9.53
2023-02-12T00:56:21.723Z,9.79
2023-02-12T00:59:14.498Z,9.91
2023-02-12T01:02:07.305Z,10.02
2023-02-12T01:05:00.168Z,10.00
2023-02-12T01:07:50.218Z,9.96
2023-02-12T01:10:43.385Z,10.00
2023-02-12T01:13:37.716Z,10.15
2023-02-12T01:16:33.886Z,10.35
2023-02-12T01:19:20.568Z,10.48
2023-02-12T01:22:13.512Z,10.51
2023-02-12T01:25:08.795Z,10.61
2023-02-12T01:28:01.575Z,10.36
2023-02-12T01:30:55.786Z,9.05
2023-02-12T01:33:51.083Z,7.81
2023-02-12T01:36:46.139Z,6.85
2023-02-12T01:39:39.117Z,6.59
2023-02-12T01:42:36.303Z,7.69
2023-02-12T01:45:56.873Z,8.59
2023-02-12T01:48:50.998Z,9.15
2023-02-12T01:51:44.776Z,9.32
2023-02-12T01:54:39.140Z,9.50
2023-02-12T01:57:37.652Z,9.66
2023-02-12T02:00:30.649Z,9.72
2023-02-12T02:03:24.409Z,9.90
2023-02-12T02:06:21.356Z,10.09
2023-02-12T02:09:16.099Z,10.30
2023-02-12T02:12:26.962Z,10.47
2023-02-12T02:15:19.967Z,10.63
2023-02-12T02:18:20.150Z,10.37
2023-02-12T02:21:47.385Z,9.06
2023-02-12T02:25:00.825Z,7.76
2023-02-12T02:28:04.200Z,6.84
2023-02-12T02:30:59.410Z,6.62
2023-02-12T02:33:57.678Z,7.71
2023-02-12T02:37:00.776Z,8.63
2023-02-12T02:39:57.217Z,9.30
2023-02-12T02:42:56.911Z,9.61
2023-02-12T02:45:53.841Z,9.80
2023-02-12T02:48:52.077Z,9.94
2023-02-12T02:51:46.970Z,10.04
2023-02-12T02:54:47.605Z,10.21
2023-02-12T02:57:46.815Z,10.29
2023-02-12T03:00:44.470Z,10.23
2023-02-12T03:03:43.645Z,10.17
2023-02-12T03:06:47.785Z,9.89
2023-02-12T03:09:45.351Z,8.59
2023-02-12T03:12:42.757Z,7.42
2023-02-12T03:15:40.595Z,6.90
2023-02-12T03:18:37.700Z,7.85
2023-02-12T03:21:37.024Z,8.62
2023-02-12T03:24:36.265Z,8.90
2023-02-12T03:27:34.102Z,8.97
2023-02-12T03:30:22.196Z,9.04
2023-02-12T03:33:24.834Z,9.09
2023-02-12T03:36:28.634Z,9.24
2023-02-12T03:39:38.793Z,9.19
2023-02-12T03:42:39.081Z,8.78
2023-02-12T03:45:45.334Z,7.27
2023-02-12T03:48:44.215Z,5.80
2023-02-12T03:51:40.972Z,5.05
2023-02-12T03:54:35.046Z,5.48
2023-02-12T03:57:34.245Z,5.70
2023-02-12T04:00:29.146Z,6.29
2023-02-12T04:03:22.846Z,6.89
2023-02-12T04:06:29.006Z,7.26
2023-02-12T04:09:23.482Z,7.50
2023-02-12T04:12:41.748Z,7.29
2023-02-12T04:16:03.921Z,5.77
2023-02-12T04:18:57.569Z,4.50
2023-02-12T04:22:03.975Z,4.17
2023-02-12T04:25:10.561Z,5.20
2023-02-12T04:28:31.165Z,6.12
2023-02-12T04:31:31.013Z,6.76
2023-02-12T04:34:33.190Z,6.74
2023-02-12T04:37:32.604Z,5.40
2023-02-12T04:40:27.140Z,4.29
2023-02-12T04:43:37.134Z,3.91
2023-02-12T04:46:30.111Z,5.03
2023-02-12T04:49:25.706Z,5.84
2023-02-12T04:52:18.670Z,6.30
2023-02-12T04:55:19.756Z,6.60
2023-02-12T04:58:12.879Z,6.49
2023-02-12T05:01:08.025Z,5.29
2023-02-12T05:04:01.273Z,4.23
2023-02-12T05:06:54.648Z,3.46
2023-02-12T05:09:40.350Z,3.38
2023-02-12T05:12:36.110Z,4.56
2023-02-12T05:15:29.449Z,5.53
2023-02-12T05:18:25.005Z,6.11
2023-02-12T05:21:20.069Z,6.54
2023-02-12T05:24:16.090Z,6.39
2023-02-12T05:27:09.408Z,5.04
2023-02-12T05:29:42.464Z,4.02
2023-02-12T05:32:35.322Z,3.18
2023-02-12T05:35:28.207Z,3.02
2023-02-12T05:38:14.226Z,4.46
2023-02-12T05:41:09.523Z,5.57
2023-02-12T05:44:02.943Z,6.28
2023-02-12T05:46:56.249Z,6.47
2023-02-12T05:49:49.501Z,5.27
2023-02-12T05:52:42.733Z,4.17
2023-02-12T05:55:24.642Z,3.47
2023-02-12T05:58:10.661Z,2.92
2023-02-12T06:01:04.380Z,2.91
2023-02-12T06:03:58.027Z,4.39
2023-02-12T06:06:49.348Z,5.60
2023-02-12T06:09:42.391Z,5.98
2023-02-12T06:12:28.240Z,5.45
2023-02-12T06:15:21.416Z,4.29
2023-02-12T06:18:15.516Z,3.42
2023-02-12T06:21:09.906Z,2.77
2023-02-12T06:24:02.927Z,2.74
2023-02-12T06:26:56.975Z,4.19
2023-02-12T06:29:50.083Z,5.29
2023-02-12T06:32:43.013Z,5.58
2023-02-12T06:35:37.988Z,4.62
2023-02-12T06:38:30.920Z,3.69
2023-02-12T06:41:24.720Z,3.05
2023-02-12T06:44:18.039Z,2.59
2023-02-12T06:47:11.119Z,2.25
2023-02-12T06:50:04.862Z,2.00
2023-02-12T06:52:57.746Z,1.82
2023-02-12T06:55:52.756Z,2.13
2023-02-12T06:58:46.878Z,3.80
2023-02-12T07:01:40.906Z,5.04
2023-02-12T07:04:28.003Z,5.54
2023-02-12T07:07:20.939Z,5.55
2023-02-12T07:10:09.579Z,4.67
2023-02-12T07:13:02.674Z,3.78
2023-02-12T07:15:55.906Z,3.16
2023-02-12T07:18:49.369Z,2.73
2023-02-12T07:21:42.470Z,2.41
2023-02-12T07:24:35.516Z,2.21
2023-02-12T07:27:28.702Z,2.09
2023-02-12T07:30:22.361Z,1.98
2023-02-12T07:33:15.110Z,1.88
2023-02-12T07:36:10.665Z,1.79
2023-02-12T07:39:03.871Z,2.10
2023-02-12T07:41:57.745Z,3.76
2023-02-12T07:44:51.461Z,5.22
2023-02-12T07:47:44.571Z,5.77
2023-02-12T07:50:37.516Z,4.96
2023-02-12T07:53:30.419Z,4.21
2023-02-12T07:56:18.252Z,3.73
2023-02-12T07:59:15.507Z,3.40
2023-02-12T08:02:08.557Z,3.10
2023-02-12T08:05:02.384Z,2.86
2023-02-12T08:07:55.315Z,2.68
2023-02-12T08:10:48.060Z,2.54
2023-02-12T08:13:41.887Z,2.45
2023-02-12T08:16:22.578Z,2.38
2023-02-12T08:19:20.469Z,2.34
2023-02-12T08:22:07.827Z,2.35
2023-02-12T08:25:00.916Z,2.40
2023-02-12T08:27:53.822Z,2.44
2023-02-12T08:30:46.954Z,2.44
2023-02-12T08:33:39.846Z,2.46
2023-02-12T08:36:37.139Z,2.47
2023-02-12T08:39:32.094Z,2.52
2023-02-12T08:42:25.858Z,2.58
2023-02-12T08:45:18.957Z,2.61
2023-02-12T08:48:12.057Z,2.65
2023-02-12T08:51:10.796Z,2.67
2023-02-12T08:53:53.014Z,2.71
2023-02-12T08:56:46.665Z,2.77
2023-02-12T08:59:39.601Z,2.79
2023-02-12T09:02:33.382Z,2.82
2023-02-12T09:05:09.573Z,2.86
2023-02-12T09:08:02.511Z,2.93
2023-02-12T09:10:56.776Z,3.01
2023-02-12T09:13:50.550Z,3.09
2023-02-12T09:16:47.835Z,3.21
2023-02-12T09:19:40.805Z,3.24
2023-02-12T09:22:38.231Z,3.26
2023-02-12T09:25:31.310Z,3.28
2023-02-12T09:28:33.000Z,3.37
2023-02-12T09:31:28.045Z,3.47
2023-02-12T09:34:21.964Z,3.51
2023-02-12T09:37:16.087Z,3.52
2023-02-12T09:40:18.097Z,3.52
2023-02-12T09:43:19.334Z,3.56
2023-02-12T09:46:20.508Z,3.65
2023-02-12T09:49:20.685Z,3.75
2023-02-12T09:52:18.855Z,3.83
2023-02-12T09:55:13.098Z,3.92
2023-02-12T09:58:14.506Z,3.97
2023-02-12T10:01:15.115Z,4.04
2023-02-12T10:04:08.349Z,4.06
2023-02-12T10:07:09.435Z,4.07
2023-02-12T10:10:25.048Z,4.08
2023-02-12T10:13:35.247Z,4.15
2023-02-12T10:16:38.859Z,4.27
2023-02-12T10:19:51.872Z,4.39
2023-02-12T10:22:57.179Z,4.56
2023-02-12T10:25:55.360Z,4.71
2023-02-12T10:28:49.243Z,4.84
2023-02-12T10:31:45.361Z,4.94
2023-02-12T10:34:40.102Z,4.94
2023-02-12T10:37:38.943Z,4.88
2023-02-12T10:40:35.242Z,4.92
2023-02-12T10:43:21.049Z,5.00
2023-02-12T10:46:17.757Z,4.98
2023-02-12T10:49:13.481Z,4.99
2023-02-12T10:52:21.366Z,5.05
2023-02-12T10:55:04.628Z,5.21
2023-02-12T10:57:58.412Z,5.24
2023-02-12T11:01:02.229Z,5.19
2023-02-12T11:03:55.560Z,5.12
2023-02-12T11:07:14.582Z,5.03
2023-02-12T11:10:28.463Z,5.00
2023-02-12T11:13:29.423Z,5.02
2023-02-12T11:16:27.914Z,4.97
2023-02-12T11:19:26.103Z,4.95
2023-02-12T11:22:19.883Z,4.97
2023-02-12T11:25:27.936Z,5.04
2023-02-12T11:28:22.030Z,5.13
2023-02-12T11:31:24.962Z,5.06
2023-02-12T11:34:20.662Z,4.98
2023-02-12T11:37:19.814Z,4.92
2023-02-12T11:40:06.197Z,4.85
2023-02-12T11:43:00.936Z,4.86
2023-02-12T11:45:56.499Z,4.85
2023-02-12T11:48:50.270Z,4.86
2023-02-12T11:51:38.229Z,4.90
2023-02-12T11:54:24.578Z,4.90
2023-02-12T11:57:45.159Z,4.89
2023-02-12T12:00:35.584Z,4.87
2023-02-12T12:03:34.743Z,4.82
2023-02-12T12:06:34.365Z,4.75
2023-02-12T12:09:32.240Z,4.76
2023-02-12T12:12:33.199Z,4.76
2023-02-12T12:15:46.229Z,4.78
2023-02-12T12:19:06.044Z,4.70
2023-02-12T12:22:07.195Z,4.58
2023-02-12T12:25:06.892Z,4.47
2023-02-12T12:28:13.736Z,4.36
2023-02-12T12:31:13.759Z,4.28
2023-02-12T12:34:11.456Z,4.22
2023-02-12T12:37:27.976Z,4.19
2023-02-12T12:40:35.726Z,4.18
2023-02-12T12:43:50.020Z,4.18
2023-02-12T12:47:14.533Z,4.21
2023-02-12T12:50:36.078Z,4.19
2023-02-12T12:54:02.806Z,4.10
2023-02-12T12:57:06.798Z,4.14
2023-02-12T13:00:10.535Z,4.17
2023-02-12T13:03:38.956Z,4.13
2023-02-12T13:06:48.525Z,4.10
2023-02-12T13:10:09.929Z,4.11
2023-02-12T13:13:20.927Z,4.15
2023-02-12T13:16:23.049Z,4.07
2023-02-12T13:19:17.334Z,3.98
2023-02-12T13:22:18.457Z,3.90
2023-02-12T13:25:23.950Z,3.81
2023-02-12T13:28:24.192Z,3.73
2023-02-12T13:31:32.905Z,3.69
2023-02-12T13:34:29.799Z,3.61
2023-02-12T13:37:35.538Z,3.54
2023-02-12T13:40:20.020Z,3.50
2023-02-12T13:43:20.510Z,3.43
2023-02-12T13:46:06.217Z,3.36
2023-02-12T13:49:02.207Z,3.31
2023-02-12T13:52:04.003Z,3.27
2023-02-12T13:55:03.227Z,3.33
2023-02-12T13:58:37.562Z,3.38
2023-02-12T14:01:12.251Z,3.33
2023-02-12T14:04:24.298Z,3.28
2023-02-12T14:07:18.690Z,3.22
2023-02-12T14:10:28.101Z,3.14
2023-02-12T14:13:28.163Z,3.04
2023-02-12T14:16:43.504Z,2.88
2023-02-12T14:19:54.008Z,2.71
2023-02-12T14:23:27.993Z,2.60
2023-02-12T14:26:08.595Z,2.46
2023-02-12T14:29:04.567Z,2.34
2023-02-12T14:31:58.498Z,2.22
2023-02-12T14:34:50.371Z,2.13
2023-02-12T14:37:45.160Z,2.07
2023-02-12T14:40:47.188Z,2.00
2023-02-12T14:43:54.771Z,1.99
2023-02-12T14:46:51.000Z,2.04
2023-02-12T14:49:42.420Z,2.11
2023-02-12T14:52:42.340Z,2.20
2023-02-12T14:55:36.781Z,2.28
2023-02-12T14:58:32.434Z,2.32
2023-02-12T15:01:34.924Z,2.30
2023-02-12T15:04:20.750Z,2.23
2023-02-12T15:07:18.503Z,2.13
2023-02-12T15:10:18.957Z,2.01
2023-02-12T15:13:26.923Z,1.90
2023-02-12T15:16:25.745Z,1.79
2023-02-12T15:19:31.862Z,1.69
2023-02-12T15:22:38.305Z,2.03
2023-02-12T15:25:33.620Z,3.93
2023-02-12T15:28:49.100Z,5.37
2023-02-12T15:31:42.880Z,6.33
2023-02-12T15:34:41.918Z,6.58
2023-02-12T15:37:35.841Z,5.43
2023-02-12T15:40:29.783Z,4.38
2023-02-12T15:43:22.909Z,3.64
2023-02-12T15:46:22.152Z,3.04
2023-02-12T15:49:23.525Z,2.48
2023-02-12T15:52:22.658Z,1.97
2023-02-12T15:55:20.178Z,1.54
2023-02-12T15:58:03.932Z,1.15
2023-02-12T16:00:51.131Z,0.80
2023-02-12T16:03:44.951Z,0.72
2023-02-12T16:06:39.010Z,1.46
2023-02-12T16:09:35.304Z,1.91
2023-02-12T16:12:19.609Z,2.32
2023-02-12T16:14:53.988Z,2.55
2023-02-12T16:17:47.962Z,2.61
2023-02-12T16:20:32.406Z,2.60
2023-02-12T16:23:29.238Z,2.62
2023-02-12T16:26:20.609Z,2.63
2023-02-12T16:29:19.601Z,2.61
2023-02-12T16:32:05.798Z,2.61
2023-02-12T16:35:25.359Z,2.64
2023-02-12T16:38:41.620Z,2.66
2023-02-12T16:41:35.614Z,2.65
2023-02-12T16:44:34.698Z,2.65
2023-02-12T16:47:28.023Z,2.65
2023-02-12T16:50:23.946Z,2.63
2023-02-12T16:53:34.535Z,2.62
2023-02-12T16:56:29.434Z,2.58
2023-02-12T16:59:19.232Z,2.57
2023-02-12T17:02:15.147Z,2.56
2023-02-12T17:05:09.648Z,2.54
2023-02-12T17:07:46.582Z,2.54
2023-02-12T17:10:39.378Z,2.50
2023-02-12T17:13:30.817Z,2.49
2023-02-12T17:16:30.678Z,2.48
2023-02-12T17:19:24.366Z,2.44
2023-02-12T17:22:23.596Z,2.38
2023-02-12T17:25:17.004Z,2.31
2023-02-12T17:28:12.535Z,2.27
2023-02-12T17:31:06.403Z,2.25
2023-02-12T17:34:00.048Z,2.16
2023-02-12T17:36:53.536Z,2.10
2023-02-12T17:39:48.251Z,2.05
2023-02-12T17:42:41.178Z,2.02
2023-02-12T17:45:35.565Z,1.97
2023-02-12T17:48:26.905Z,1.94
2023-02-12T17:51:20.615Z,1.90
2023-02-12T17:54:14.037Z,1.87
2023-02-12T17:57:07.169Z,1.94
2023-02-12T17:59:59.943Z,1.93
2023-02-12T18:02:55.362Z,1.88
2023-02-12T18:05:48.285Z,1.84
2023-02-12T18:08:41.014Z,1.76
2023-02-12T18:11:33.681Z,1.75
2023-02-12T18:14:26.480Z,1.84
2023-02-12T18:17:19.447Z,1.92
2023-02-12T18:20:13.760Z,1.91
2023-02-12T18:23:06.615Z,1.88
2023-02-12T18:26:05.729Z,1.84
2023-02-12T18:28:59.807Z,1.79
2023-02-12T18:31:52.698Z,1.77
2023-02-12T18:34:45.718Z,1.71
2023-02-12T18:37:28.801Z,1.62
2023-02-12T18:40:22.069Z,1.61
2023-02-12T18:43:14.828Z,1.59
2023-02-12T18:46:12.359Z,1.51
2023-02-12T18:49:00.413Z,1.48
2023-02-12T18:51:45.950Z,1.46
2023-02-12T18:54:38.701Z,1.41
2023-02-12T18:57:23.961Z,1.37
2023-02-12T19:00:17.975Z,1.36
2023-02-12T19:02:53.834Z,1.38
2023-02-12T19:05:47.007Z,1.40
2023-02-12T19:08:29.994Z,1.38
2023-02-12T19:11:22.793Z,1.35
2023-02-12T19:14:17.708Z,1.35
2023-02-12T19:17:11.829Z,1.37
2023-02-12T19:20:04.793Z,1.36
2023-02-12T19:22:59.604Z,1.32
2023-02-12T19:25:52.375Z,1.31
2023-02-12T19:28:46.293Z,1.32
2023-02-12T19:31:41.280Z,1.33
2023-02-12T19:34:34.788Z,1.33
2023-02-12T19:37:27.603Z,1.30
2023-02-12T19:40:20.977Z,1.29
2023-02-12T19:43:12.906Z,1.28
2023-02-12T19:46:07.995Z,1.26
2023-02-12T19:49:04.701Z,1.26
2023-02-12T19:51:50.662Z,1.24
2023-02-12T19:54:45.372Z,1.20
2023-02-12T19:57:38.706Z,1.17
2023-02-12T20:00:32.699Z,1.17
2023-02-12T20:03:26.467Z,1.17
2023-02-12T20:06:28.618Z,1.17
2023-02-12T20:09:23.364Z,1.18
2023-02-12T20:12:09.415Z,1.19
2023-02-12T20:15:02.808Z,1.21
2023-02-12T20:17:56.182Z,1.21
2023-02-12T20:20:48.954Z,1.20
2023-02-12T20:23:41.872Z,1.20
2023-02-12T20:26:36.424Z,1.23
2023-02-12T20:29:29.408Z,1.24
2023-02-12T20:32:22.191Z,1.22
2023-02-12T20:35:15.571Z,1.28
2023-02-12T20:38:08.915Z,1.25
2023-02-12T20:41:05.023Z,1.17
2023-02-12T20:44:00.841Z,1.16
2023-02-12T20:46:57.193Z,1.14
2023-02-12T20:49:52.135Z,1.15
2023-02-12T20:52:45.334Z,1.16
2023-02-12T20:55:38.410Z,1.17
2023-02-12T20:58:31.445Z,1.16
2023-02-12T21:01:26.432Z,1.17
2023-02-12T21:04:20.667Z,1.19
2023-02-12T21:07:13.458Z,1.39
2023-02-12T21:10:06.989Z,1.66
2023-02-12T21:13:00.869Z,1.80
2023-02-12T21:15:55.395Z,1.58
2023-02-12T21:18:50.084Z,1.34
2023-02-12T21:21:45.564Z,1.19
2023-02-12T21:24:39.048Z,1.12
2023-02-12T21:27:32.272Z,1.10
2023-02-12T21:30:25.232Z,1.09
2023-02-12T21:33:17.939Z,1.06
2023-02-12T21:36:14.133Z,0.99
2023-02-12T21:39:08.420Z,0.95
2023-02-12T21:41:56.271Z,0.95
2023-02-12T21:44:49.160Z,0.95
2023-02-12T21:47:43.082Z,0.96
2023-02-12T21:50:37.965Z,0.96
2023-02-12T21:53:34.097Z,0.91
2023-02-12T21:56:27.799Z,0.84
2023-02-12T21:59:22.584Z,0.83
2023-02-12T22:02:15.435Z,0.77
2023-02-12T22:05:12.240Z,0.75
2023-02-12T22:08:05.302Z,0.72
2023-02-12T22:11:02.407Z,0.65
2023-02-12T22:13:55.361Z,0.60
2023-02-12T22:16:49.856Z,0.58
2023-02-12T22:19:42.122Z,0.63
2023-02-12T22:22:36.289Z,0.74
2023-02-12T22:25:19.286Z,0.84
2023-02-12T22:28:12.038Z,0.93
2023-02-12T22:31:08.328Z,1.01
2023-02-12T22:34:02.621Z,1.11
2023-02-12T22:36:55.645Z,1.18
2023-02-12T22:39:48.401Z,1.32
2023-02-12T22:42:41.150Z,1.49
2023-02-12T22:45:34.006Z,1.64
2023-02-12T22:48:28.323Z,1.73
2023-02-12T22:51:26.224Z,1.81
2023-02-12T22:54:18.683Z,1.92
2023-02-12T22:57:12.872Z,1.99
2023-02-12T23:00:06.057Z,2.15
2023-02-12T23:02:58.799Z,2.45
2023-02-12T23:05:51.608Z,2.47
2023-02-12T23:08:37.994Z,2.52
2023-02-12T23:11:24.585Z,2.44
2023-02-12T23:14:17.660Z,2.67
2023-02-12T23:17:10.685Z,2.69
2023-02-12T23:20:03.470Z,2.46
2023-02-12T23:22:57.139Z,2.26
2023-02-12T23:25:50.261Z,2.17
2023-02-12T23:28:43.081Z,2.09
2023-02-12T23:31:36.680Z,2.12
2023-02-12T23:34:29.756Z,2.15
2023-02-12T23:37:21.170Z,2.06
2023-02-12T23:40:16.060Z,1.91
2023-02-12T23:43:07.651Z,1.85
2023-02-12T23:46:02.625Z,2.70
2023-02-12T23:48:55.488Z,3.82
2023-02-12T23:51:48.237Z,4.49
2023-02-12T23:54:33.661Z,4.56
2023-02-12T23:57:28.570Z,4.68
